Pittsburgh International Airport
KPIT : now visible

Airfield :











YOU CAN JOIN US ON...

 
LOGIN :

Register | Disclaimer

   EN    FR    IT 

 









Legend :    VFR   Marginal VFR   IFR   Intensive IFR   Very Intensive IFR
Visi :
Ceiling :
>= 8 km
>= 3000ft
5 to 8 km
1000 to 3000 ft
1500m to 5 km
500 to 1000 ft
800 to 1500m
200 to 500 ft
< 800m
< 200 ft
Symbols :   Thunderstorms  Fog  Heavy snow  Heavy precipitations  Wind > 20 kt






- Airport Elevation : 1203 ft
- IATA code : PIT


KPIT - Pittsburgh International

CURRENT METAR :
  • 280451Z 14008KT 10SM BKN110 OVC160 22/16 A3007 RMK AO2 SLP181 T02220156 402780178

EXPIRED METARs :
  • 280351Z 14007KT 10SM OVC120 23/16 A3007 RMK AO2 SLP181 T02280156
  • 280251Z 14009KT 10SM BKN130 OVC200 23/15 A3006 RMK AO2 SLP178 T02330150 53002

TAF KPIT
Valid from the 28 at 06:00 until the 29 at 12:00 UTC


280520Z 2806/2912 13007KT P6SM -RA OVC100
FM281200 11009KT 2SM -RA OVC007
FM281600 17010G18KT P6SM -RA BKN015
FM282000 22012G20KT P6SM BKN035
FM290100 19004KT P6SM SCT250
KZOB FIR / North America



MET'MAP, your aeronautical weather chart ! - Copyright ORBIFLY December 2007 - Disclaimer

ORBIFLY MET'MAP TEAM :

Programming & Development : Alexandra Zaïnal
Concept & original design : Baudouin d'Aumeries
Assistance for programming : Marc-Olivier Méhu
Technical & hardware support : Manuel Goepfert

Contact : metmap@orbifly.com




SOURCES & CREDITS :

   NOAA       Earth
Advisory